Time;durP1;ratioP1;P1;durP2;ratioP2;P2;SDS_P1;SDS_P2;PMS_P1;PMS_P2;Temp;Humidity;BMP_temperature;BMP_pressure;BME280_temperature;BME280_humidity;BME280_pressure;Samples;Min_cycle;Max_cycle;Signal;HPM_P1;HPM_P2
2023/10/16 00:02:12;;;;;;;7.70;3.55;;;;;;;;;;6216559;23;20020;-75
2023/10/16 00:04:43;;;;;;;6.93;3.30;;;;;;;;;;6243327;23;20012;-74
2023/10/16 00:07:22;;;;;;;6.30;3.20;;;;;;;;;;6243406;23;20464;-75
2023/10/16 00:09:49;;;;;;;5.03;3.40;;;;;;;;;;6242639;23;20019;-75
2023/10/16 00:12:19;;;;;;;6.57;3.65;;;;;;;;;;6216441;23;20107;-75
2023/10/16 00:14:45;;;;;;;6.55;3.05;;;;;;;;;;6215942;23;20012;-75
2023/10/16 00:17:13;;;;;;;5.70;2.85;;;;;;;;;;6245144;23;20094;-75
2023/10/16 00:19:40;;;;;;;6.63;3.60;;;;;;;;;;6250740;23;20467;-76
2023/10/16 00:22:27;;;;;;;4.50;2.80;;;;;;;;;;6225331;23;20023;-72
2023/10/16 00:24:52;;;;;;;10.27;4.18;;;;;;;;;;6196335;23;20012;-73
2023/10/16 00:27:18;;;;;;;4.35;3.15;;;;;;;;;;6243405;23;20364;-72
2023/10/16 00:29:44;;;;;;;6.05;2.83;;;;;;;;;;6242734;23;20474;-73
2023/10/16 00:32:11;;;;;;;5.93;3.40;;;;;;;;;;6191071;23;20015;-73
2023/10/16 00:34:38;;;;;;;5.72;2.80;;;;;;;;;;6243007;23;20417;-73
2023/10/16 00:37:07;;;;;;;5.90;2.35;;;;;;;;;;6215713;23;20043;-74
2023/10/16 00:39:34;;;;;;;8.88;2.22;;;;;;;;;;6243137;23;20039;-74
2023/10/16 00:42:00;;;;;;;6.55;2.58;;;;;;;;;;6215983;23;20008;-75
2023/10/16 00:44:34;;;;;;;7.30;3.00;;;;;;;;;;6242948;23;20019;-73
2023/10/16 00:47:01;;;;;;;7.65;2.92;;;;;;;;;;6190669;23;20015;-73
2023/10/16 00:49:28;;;;;;;9.55;3.60;;;;;;;;;;6242989;23;20016;-74
2023/10/16 00:51:54;;;;;;;4.05;3.20;;;;;;;;;;6215808;23;20031;-73
2023/10/16 00:54:28;;;;;;;3.65;2.75;;;;;;;;;;6243422;23;20012;-72
2023/10/16 00:56:54;;;;;;;5.97;2.90;;;;;;;;;;6192737;23;20392;-70
2023/10/16 00:59:23;;;;;;;5.45;3.13;;;;;;;;;;6243589;23;20012;-73
2023/10/16 01:01:51;;;;;;;5.32;2.92;;;;;;;;;;6242888;23;20012;-75
2023/10/16 01:04:20;;;;;;;7.07;2.72;;;;;;;;;;6242834;23;20039;-73
2023/10/16 01:06:47;;;;;;;9.07;3.10;;;;;;;;;;6190764;23;20012;-74
2023/10/16 01:09:24;;;;;;;3.22;2.97;;;;;;;;;;6242424;23;20376;-73
2023/10/16 01:11:51;;;;;;;3.33;2.80;;;;;;;;;;6217471;23;20484;-73
2023/10/16 01:14:17;;;;;;;5.50;3.30;;;;;;;;;;6215935;23;20012;-73
2023/10/16 01:16:43;;;;;;;6.13;3.15;;;;;;;;;;6215709;23;20012;-72
2023/10/16 01:19:09;;;;;;;5.03;3.10;;;;;;;;;;6215970;23;20047;-73
2023/10/16 01:21:35;;;;;;;7.20;3.60;;;;;;;;;;6242279;23;20484;-74
2023/10/16 01:24:12;;;;;;;8.98;3.10;;;;;;;;;;6242799;23;20071;-74
2023/10/16 01:26:41;;;;;;;9.30;3.22;;;;;;;;;;6242826;23;20008;-74
2023/10/16 01:29:08;;;;;;;2.95;2.65;;;;;;;;;;6242282;23;20016;-73
2023/10/16 01:31:38;;;;;;;5.18;3.63;;;;;;;;;;6215613;23;20036;-74
2023/10/16 01:34:10;;;;;;;8.35;3.10;;;;;;;;;;6190516;23;20086;-74
2023/10/16 01:36:37;;;;;;;5.18;3.55;;;;;;;;;;6242227;23;20016;-72
2023/10/16 01:39:08;;;;;;;8.57;3.10;;;;;;;;;;6215142;23;20104;-74
2023/10/16 01:41:34;;;;;;;8.07;3.15;;;;;;;;;;6242190;23;20027;-73
2023/10/16 01:44:09;;;;;;;3.95;3.08;;;;;;;;;;6215294;23;20061;-74
2023/10/16 01:46:36;;;;;;;6.40;3.38;;;;;;;;;;6242108;23;20019;-73
2023/10/16 01:49:04;;;;;;;6.47;3.67;;;;;;;;;;6214682;23;20012;-73
2023/10/16 01:51:31;;;;;;;4.40;3.00;;;;;;;;;;6241779;23;20365;-74
2023/10/16 01:53:57;;;;;;;3.40;3.00;;;;;;;;;;6190176;23;20008;-71
2023/10/16 01:56:22;;;;;;;7.05;3.67;;;;;;;;;;6215348;23;20012;-73
2023/10/16 01:58:49;;;;;;;4.80;3.45;;;;;;;;;;6215048;23;20541;-73
2023/10/16 02:01:16;;;;;;;4.75;3.30;;;;;;;;;;6215216;23;20062;-74
2023/10/16 02:03:46;;;;;;;4.93;3.20;;;;;;;;;;6242120;23;20073;-72
2023/10/16 02:06:12;;;;;;;3.90;3.00;;;;;;;;;;6242121;23;20016;-73
2023/10/16 02:08:38;;;;;;;5.55;3.20;;;;;;;;;;6214922;23;20460;-74
2023/10/16 02:11:04;;;;;;;3.15;2.70;;;;;;;;;;6214990;23;20047;-73
2023/10/16 02:13:36;;;;;;;6.72;3.20;;;;;;;;;;6242094;23;20012;-72
2023/10/16 02:16:10;;;;;;;5.10;2.80;;;;;;;;;;6215558;23;20022;-73
2023/10/16 02:18:40;;;;;;;4.32;2.65;;;;;;;;;;6215710;23;20012;-74
2023/10/16 02:21:26;;;;;;;5.15;3.05;;;;;;;;;;6219793;23;20008;-71
2023/10/16 02:23:52;;;;;;;3.78;2.72;;;;;;;;;;6241755;23;20016;-73
2023/10/16 02:26:18;;;;;;;7.72;2.85;;;;;;;;;;6215623;23;20023;-73
2023/10/16 02:28:46;;;;;;;5.75;3.40;;;;;;;;;;6215672;23;20016;-75
2023/10/16 02:31:13;;;;;;;3.25;2.72;;;;;;;;;;6215098;23;20031;-73
2023/10/16 02:33:46;;;;;;;9.80;3.40;;;;;;;;;;6241947;23;20062;-74
2023/10/16 02:36:12;;;;;;;5.22;2.95;;;;;;;;;;6241438;23;20023;-73
2023/10/16 02:38:38;;;;;;;7.38;2.90;;;;;;;;;;6215316;23;20035;-72
2023/10/16 02:41:04;;;;;;;5.07;3.40;;;;;;;;;;6215172;23;20019;-72
2023/10/16 02:43:31;;;;;;;5.97;3.80;;;;;;;;;;6241993;23;20012;-72
2023/10/16 02:46:01;;;;;;;6.50;3.25;;;;;;;;;;6241763;23;20482;-72
2023/10/16 02:48:27;;;;;;;6.10;3.78;;;;;;;;;;6242664;23;20091;-73
2023/10/16 02:50:59;;;;;;;8.02;3.53;;;;;;;;;;6190228;23;20020;-73
2023/10/16 02:53:26;;;;;;;6.50;3.80;;;;;;;;;;6190367;23;20020;-72
2023/10/16 02:56:03;;;;;;;10.10;3.30;;;;;;;;;;6215026;23;20031;-72
2023/10/16 02:58:29;;;;;;;5.97;3.45;;;;;;;;;;6242193;23;20030;-72
2023/10/16 03:00:55;;;;;;;8.30;3.85;;;;;;;;;;6243270;23;20043;-74
2023/10/16 03:03:26;;;;;;;5.45;3.60;;;;;;;;;;6243759;23;20012;-72
2023/10/16 03:05:55;;;;;;;5.03;3.85;;;;;;;;;;6243511;23;20505;-72
2023/10/16 03:08:30;;;;;;;7.65;4.07;;;;;;;;;;6243651;23;20516;-71
2023/10/16 03:11:04;;;;;;;4.22;3.50;;;;;;;;;;6216626;23;20464;-73
2023/10/16 03:13:35;;;;;;;6.25;3.50;;;;;;;;;;6243925;23;20382;-73
2023/10/16 03:16:16;;;;;;;8.10;3.75;;;;;;;;;;6217815;23;20016;-72
2023/10/16 03:18:43;;;;;;;9.73;3.67;;;;;;;;;;6192104;23;20020;-71
2023/10/16 03:23:49;;;;;;;5.80;3.97;;;;;;;;;;6243718;23;20036;-71
2023/10/16 03:26:28;;;;;;;4.03;3.63;;;;;;;;;;6243513;23;20012;-72
2023/10/16 03:28:54;;;;;;;4.78;3.55;;;;;;;;;;6243351;23;20121;-72
2023/10/16 03:31:20;;;;;;;7.00;3.80;;;;;;;;;;6243284;23;20024;-74
2023/10/16 03:33:47;;;;;;;3.70;3.40;;;;;;;;;;6216747;23;20012;-72
2023/10/16 03:36:15;;;;;;;8.77;4.05;;;;;;;;;;6243598;23;20095;-75
2023/10/16 03:38:41;;;;;;;10.85;4.05;;;;;;;;;;6243605;23;20085;-72
2023/10/16 03:41:28;;;;;;;6.57;3.42;;;;;;;;;;6243487;23;20016;-75
2023/10/16 03:43:56;;;;;;;8.77;3.65;;;;;;;;;;6243970;23;20012;-74
2023/10/16 03:46:26;;;;;;;6.85;3.65;;;;;;;;;;6243509;23;20099;-74
2023/10/16 03:48:54;;;;;;;6.47;3.75;;;;;;;;;;6216341;23;20012;-74
2023/10/16 03:51:21;;;;;;;8.05;3.95;;;;;;;;;;6243326;23;20051;-73
2023/10/16 03:53:50;;;;;;;8.82;3.92;;;;;;;;;;6243361;23;20448;-75
2023/10/16 03:56:16;;;;;;;7.88;3.55;;;;;;;;;;6216638;23;20019;-75
2023/10/16 03:58:43;;;;;;;9.23;3.83;;;;;;;;;;6243675;23;20008;-73
2023/10/16 04:01:10;;;;;;;7.28;3.58;;;;;;;;;;6244034;23;20016;-74
2023/10/16 04:03:56;;;;;;;7.68;3.60;;;;;;;;;;6244093;23;20039;-74
2023/10/16 04:06:22;;;;;;;6.05;3.83;;;;;;;;;;6244103;23;20111;-74
2023/10/16 04:08:49;;;;;;;9.90;3.83;;;;;;;;;;6246119;23;20378;-75
2023/10/16 04:11:17;;;;;;;4.82;2.72;;;;;;;;;;6252654;23;20051;-78
2023/10/16 04:13:48;;;;;;;2.70;2.17;;;;;;;;;;6220872;23;20012;-75
2023/10/16 04:16:42;;;;;;;6.28;1.90;;;;;;;;;;6218396;23;20020;-78
2023/10/16 04:21:45;;;;;;;4.97;2.30;;;;;;;;;;6243822;23;20475;-74
2023/10/16 04:29:49;;;;;;;3.63;2.40;;;;;;;;;;6244490;23;20103;-74
2023/10/16 04:35:28;;;;;;;5.20;2.97;;;;;;;;;;6220666;23;20008;-73
2023/10/16 04:37:54;;;;;;;5.53;2.65;;;;;;;;;;6213906;23;20558;-74
2023/10/16 04:43:15;;;;;;;3.13;2.50;;;;;;;;;;6239745;23;20008;-69
2023/10/16 04:45:59;;;;;;;13.05;1.50;;;;;;;;;;6240423;23;20543;-70
2023/10/16 04:51:16;;;;;;;4.25;1.75;;;;;;;;;;6239995;23;20096;-69
2023/10/16 04:54:27;;;;;;;2.30;1.63;;;;;;;;;;6238220;23;20012;-68
2023/10/16 05:00:27;;;;;;;6.68;2.70;;;;;;;;;;6241808;23;20008;-68
2023/10/16 05:08:30;;;;;;;5.25;3.45;;;;;;;;;;6214502;23;20023;-69
2023/10/16 05:11:23;;;;;;;3.63;2.67;;;;;;;;;;6241311;23;20117;-69
2023/10/16 05:13:39;;;;;;;4.43;3.13;;;;;;;;;;6241539;23;20091;-70
2023/10/16 05:19:03;;;;;;;5.50;3.10;;;;;;;;;;6241469;23;20013;-70
2023/10/16 06:16:22;;;;;;;4.72;1.95;;;;;;;;;;6241195;23;20023;-69
2023/10/16 06:18:48;;;;;;;2.72;2.50;;;;;;;;;;6241265;23;20012;-68
2023/10/16 06:21:15;;;;;;;3.15;2.13;;;;;;;;;;6241105;23;20066;-69
2023/10/16 06:23:48;;;;;;;2.90;2.45;;;;;;;;;;6241349;23;20334;-68
2023/10/16 06:26:17;;;;;;;6.03;2.40;;;;;;;;;;6240989;23;20098;-68
2023/10/16 06:28:49;;;;;;;3.90;2.53;;;;;;;;;;6241221;23;20016;-67
2023/10/16 06:31:22;;;;;;;6.32;2.78;;;;;;;;;;6240839;23;20028;-68
2023/10/16 06:33:58;;;;;;;8.10;2.90;;;;;;;;;;6214429;23;20042;-70
2023/10/16 06:36:24;;;;;;;4.90;2.50;;;;;;;;;;6243191;23;20016;-69
2023/10/16 06:38:51;;;;;;;3.35;2.22;;;;;;;;;;6243678;23;20163;-70
2023/10/16 06:41:17;;;;;;;6.57;2.30;;;;;;;;;;6216445;23;20039;-68
2023/10/16 06:43:47;;;;;;;4.78;2.47;;;;;;;;;;6216615;23;20008;-70
2023/10/16 06:46:21;;;;;;;4.93;2.30;;;;;;;;;;6243271;23;20016;-70
2023/10/16 06:48:48;;;;;;;4.38;2.20;;;;;;;;;;6246904;23;20008;-70
2023/10/16 06:51:15;;;;;;;4.50;2.25;;;;;;;;;;6220901;23;20027;-69
2023/10/16 06:53:42;;;;;;;5.57;2.28;;;;;;;;;;6248721;23;20080;-70
2023/10/16 06:56:08;;;;;;;2.63;2.35;;;;;;;;;;6245145;23;20449;-70
2023/10/16 06:58:34;;;;;;;3.53;2.10;;;;;;;;;;6213748;23;20012;-69
2023/10/16 07:01:01;;;;;;;4.13;2.30;;;;;;;;;;6214059;23;20039;-68
2023/10/16 07:03:28;;;;;;;3.35;2.08;;;;;;;;;;6242643;23;20071;-71
2023/10/16 07:05:54;;;;;;;2.60;2.30;;;;;;;;;;6243044;23;20020;-70
2023/10/16 07:08:20;;;;;;;7.72;2.30;;;;;;;;;;6243041;23;20095;-69
2023/10/16 07:10:49;;;;;;;2.95;2.00;;;;;;;;;;6242743;23;20024;-69
2023/10/16 07:13:26;;;;;;;2.70;2.10;;;;;;;;;;6242632;23;20202;-71
2023/10/16 07:15:53;;;;;;;1.50;1.40;;;;;;;;;;6242953;23;20073;-73
2023/10/16 07:18:24;;;;;;;2.35;1.83;;;;;;;;;;6242793;23;20429;-72
2023/10/16 07:23:24;;;;;;;2.72;2.00;;;;;;;;;;6242899;23;20008;-71
2023/10/16 07:25:57;;;;;;;2.78;2.20;;;;;;;;;;6191140;23;20019;-72
2023/10/16 07:28:23;;;;;;;3.58;2.45;;;;;;;;;;6242376;23;20091;-71
2023/10/16 07:30:50;;;;;;;2.03;1.90;;;;;;;;;;6216217;23;20035;-70
2023/10/16 07:33:16;;;;;;;2.45;1.90;;;;;;;;;;6242192;23;20012;-70
2023/10/16 07:35:45;;;;;;;2.10;1.90;;;;;;;;;;6215614;23;20127;-74
2023/10/16 07:38:11;;;;;;;2.88;1.63;;;;;;;;;;6242109;23;20478;-73
2023/10/16 07:40:37;;;;;;;1.63;1.52;;;;;;;;;;6242654;23;20039;-72
2023/10/16 07:43:03;;;;;;;1.80;1.70;;;;;;;;;;6215371;23;20011;-71
2023/10/16 07:45:32;;;;;;;3.30;1.90;;;;;;;;;;6243614;23;20509;-78
2023/10/16 07:48:07;;;;;;;1.77;1.67;;;;;;;;;;6242085;23;20008;-78
2023/10/16 07:50:38;;;;;;;3.30;2.00;;;;;;;;;;6246788;23;20027;-78
2023/10/16 07:53:07;;;;;;;2.53;1.70;;;;;;;;;;6199202;23;20008;-77
2023/10/16 07:55:39;;;;;;;2.13;1.95;;;;;;;;;;6224716;23;20066;-78
2023/10/16 07:58:15;;;;;;;1.63;1.52;;;;;;;;;;6192095;23;20412;-79
2023/10/16 08:03:26;;;;;;;1.80;1.70;;;;;;;;;;6217674;23;20325;-79
2023/10/16 08:05:52;;;;;;;1.70;1.60;;;;;;;;;;6245584;23;20024;-79
2023/10/16 08:08:25;;;;;;;1.98;1.88;;;;;;;;;;6243535;23;20184;-79
2023/10/16 08:10:52;;;;;;;2.78;2.38;;;;;;;;;;6242981;23;20028;-79
2023/10/16 08:13:24;;;;;;;1.75;1.65;;;;;;;;;;6216143;23;20035;-78
2023/10/16 08:15:51;;;;;;;1.80;1.65;;;;;;;;;;6218060;23;20096;-77
2023/10/16 08:18:25;;;;;;;2.50;2.40;;;;;;;;;;6215416;23;20099;-77
2023/10/16 08:21:07;;;;;;;2.85;1.92;;;;;;;;;;6250332;23;20015;-76
2023/10/16 08:23:38;;;;;;;3.67;2.70;;;;;;;;;;6222793;23;20008;-78
2023/10/16 08:26:27;;;;;;;2.53;2.00;;;;;;;;;;6247854;23;20019;-78
2023/10/16 08:29:11;;;;;;;1.80;1.70;;;;;;;;;;6242405;23;20017;-78
2023/10/16 08:32:27;;;;;;;3.05;2.47;;;;;;;;;;6195296;23;20031;-77
2023/10/16 08:34:40;;;;;;;;;;;;;;;;;;6217069;23;20034;-77
2023/10/16 08:37:08;;;;;;;3.88;2.90;;;;;;;;;;6241550;23;19914;-76
2023/10/16 08:39:37;;;;;;;2.78;2.45;;;;;;;;;;6242438;23;20012;-76
2023/10/16 08:42:25;;;;;;;5.10;2.20;;;;;;;;;;6241727;23;20012;-76
2023/10/16 08:45:14;;;;;;;2.65;2.40;;;;;;;;;;6242021;23;20479;-77
2023/10/16 08:47:42;;;;;;;3.05;2.10;;;;;;;;;;6220541;23;20393;-76
2023/10/16 08:50:17;;;;;;;2.95;2.05;;;;;;;;;;6241827;23;20011;-79
2023/10/16 08:52:58;;;;;;;1.80;1.70;;;;;;;;;;6190161;23;20390;-78
2023/10/16 08:55:28;;;;;;;2.35;2.05;;;;;;;;;;6190428;23;20107;-79
2023/10/16 08:57:54;;;;;;;3.70;2.08;;;;;;;;;;6190923;23;20024;-78
2023/10/16 09:00:22;;;;;;;2.92;2.40;;;;;;;;;;6214994;23;20008;-77
2023/10/16 09:02:49;;;;;;;4.38;1.60;;;;;;;;;;6215885;23;20016;-78
2023/10/16 09:05:16;;;;;;;5.18;1.67;;;;;;;;;;6190324;23;20515;-79
2023/10/16 09:07:42;;;;;;;2.90;1.88;;;;;;;;;;6215824;23;20054;-79
2023/10/16 09:10:12;;;;;;;2.20;2.00;;;;;;;;;;6190625;23;20023;-78
2023/10/16 09:12:54;;;;;;;2.45;1.60;;;;;;;;;;6216511;23;20016;-79
2023/10/16 09:15:24;;;;;;;3.33;2.45;;;;;;;;;;6218778;23;20012;-70
2023/10/16 09:17:51;;;;;;;2.40;2.00;;;;;;;;;;6242017;23;20008;-71
2023/10/16 09:20:17;;;;;;;3.08;2.05;;;;;;;;;;6241621;23;20012;-69
2023/10/16 09:22:45;;;;;;;2.40;2.20;;;;;;;;;;6214837;23;20697;-70
2023/10/16 09:25:15;;;;;;;3.83;2.70;;;;;;;;;;6215168;23;20460;-71
2023/10/16 09:27:42;;;;;;;2.50;1.83;;;;;;;;;;6242368;23;20012;-70
2023/10/16 09:30:17;;;;;;;2.70;2.50;;;;;;;;;;6214859;23;20015;-72
2023/10/16 09:32:44;;;;;;;2.65;2.10;;;;;;;;;;6211842;23;20052;-70
2023/10/16 09:35:13;;;;;;;3.47;2.03;;;;;;;;;;6240977;23;20094;-69
2023/10/16 09:37:40;;;;;;;1.95;1.70;;;;;;;;;;6241642;23;20023;-72
2023/10/16 09:40:58;;;;;;;2.30;2.10;;;;;;;;;;6240959;23;20016;-70
2023/10/16 09:43:05;;;;;;;1.90;1.80;;;;;;;;;;6202362;23;20020;-70
2023/10/16 09:45:35;;;;;;;2.03;1.83;;;;;;;;;;6190384;23;20372;-71
2023/10/16 09:48:07;;;;;;;2.75;2.50;;;;;;;;;;6241579;23;20023;-71
2023/10/16 09:50:37;;;;;;;1.77;1.75;;;;;;;;;;6240809;23;20036;-70
2023/10/16 09:53:07;;;;;;;2.87;1.83;;;;;;;;;;6214198;23;20027;-71
2023/10/16 09:55:38;;;;;;;2.53;1.95;;;;;;;;;;6240790;23;20243;-71
2023/10/16 09:58:08;;;;;;;3.60;2.22;;;;;;;;;;6240434;23;20046;-71
2023/10/16 10:00:37;;;;;;;2.15;2.05;;;;;;;;;;6240556;23;20018;-72
2023/10/16 10:03:06;;;;;;;1.90;1.80;;;;;;;;;;6214082;23;20019;-72
2023/10/16 10:05:41;;;;;;;1.65;1.55;;;;;;;;;;6241102;23;20012;-69
2023/10/16 10:08:18;;;;;;;2.42;1.83;;;;;;;;;;6240560;23;20019;-69
2023/10/16 10:11:16;;;;;;;2.10;2.00;;;;;;;;;;6214266;23;20048;-70
2023/10/16 10:13:43;;;;;;;2.05;1.95;;;;;;;;;;6241059;23;20015;-70
2023/10/16 10:16:12;;;;;;;1.23;1.10;;;;;;;;;;6214229;23;20012;-75
2023/10/16 10:18:44;;;;;;;4.38;2.35;;;;;;;;;;6192703;23;20023;-71
2023/10/16 10:21:18;;;;;;;3.03;2.15;;;;;;;;;;6243405;23;20022;-72
2023/10/16 10:23:48;;;;;;;3.30;2.30;;;;;;;;;;6243278;23;20388;-71
2023/10/16 10:26:18;;;;;;;2.15;1.60;;;;;;;;;;6242444;23;20094;-69
2023/10/16 10:28:45;;;;;;;2.15;2.05;;;;;;;;;;6241101;23;20482;-71
2023/10/16 10:31:11;;;;;;;2.33;1.95;;;;;;;;;;6240004;23;20016;-68
2023/10/16 10:33:38;;;;;;;1.90;1.80;;;;;;;;;;6189037;23;20016;-69
2023/10/16 10:36:22;;;;;;;1.80;1.70;;;;;;;;;;6240885;23;20008;-69
2023/10/16 10:38:48;;;;;;;3.28;2.13;;;;;;;;;;6240861;23;20087;-70
2023/10/16 10:41:15;;;;;;;2.90;1.80;;;;;;;;;;6240508;23;20035;-69
2023/10/16 10:43:46;;;;;;;2.85;2.65;;;;;;;;;;6240765;23;20035;-69
2023/10/16 10:46:21;;;;;;;2.25;1.77;;;;;;;;;;6189373;23;20039;-70
2023/10/16 10:48:47;;;;;;;3.40;2.30;;;;;;;;;;6240840;23;20047;-68
2023/10/16 10:51:14;;;;;;;2.35;1.70;;;;;;;;;;6240173;23;20016;-69
2023/10/16 10:53:52;;;;;;;2.25;2.05;;;;;;;;;;6240812;23;20012;-69
2023/10/16 10:56:20;;;;;;;2.58;2.10;;;;;;;;;;6240607;23;20476;-70
2023/10/16 10:58:47;;;;;;;2.10;2.00;;;;;;;;;;6240848;23;20074;-69
2023/10/16 11:01:16;;;;;;;10.98;7.60;;;;;;;;;;6213481;23;20087;-70
2023/10/16 11:03:45;;;;;;;2.80;2.58;;;;;;;;;;6240695;23;20012;-69
2023/10/16 11:06:17;;;;;;;3.60;3.03;;;;;;;;;;6240312;23;20012;-68
2023/10/16 11:08:45;;;;;;;4.32;2.40;;;;;;;;;;6240347;23;20019;-69
2023/10/16 11:11:11;;;;;;;2.28;2.08;;;;;;;;;;6188236;23;20023;-69
2023/10/16 11:13:44;;;;;;;3.00;2.30;;;;;;;;;;6240558;23;20506;-71
2023/10/16 11:16:10;;;;;;;3.08;2.30;;;;;;;;;;6240012;23;20449;-70
2023/10/16 11:18:37;;;;;;;2.22;2.00;;;;;;;;;;6240482;23;20016;-69
2023/10/16 11:21:06;;;;;;;2.80;2.05;;;;;;;;;;6241069;23;20038;-70
2023/10/16 11:23:38;;;;;;;2.75;2.38;;;;;;;;;;6242350;23;20035;-69
2023/10/16 11:26:12;;;;;;;2.30;2.20;;;;;;;;;;6242588;23;20023;-70
2023/10/16 11:28:38;;;;;;;3.00;2.70;;;;;;;;;;6242443;23;20008;-69
2023/10/16 11:31:10;;;;;;;3.47;2.50;;;;;;;;;;6189956;23;20020;-69
2023/10/16 11:34:00;;;;;;;3.38;3.08;;;;;;;;;;6242722;23;20051;-70
2023/10/16 11:36:35;;;;;;;3.30;2.80;;;;;;;;;;6242667;23;20086;-70
2023/10/16 11:39:06;;;;;;;3.42;3.13;;;;;;;;;;6242545;23;20020;-70
2023/10/16 11:41:33;;;;;;;3.47;3.22;;;;;;;;;;6191072;23;20012;-69
2023/10/16 11:44:02;;;;;;;2.67;2.28;;;;;;;;;;6242159;23;20360;-69
2023/10/16 11:46:34;;;;;;;3.45;3.15;;;;;;;;;;6241364;23;20014;-68
2023/10/16 11:51:45;;;;;;;2.90;2.70;;;;;;;;;;6214803;23;20115;-69
2023/10/16 11:54:11;;;;;;;3.40;3.10;;;;;;;;;;6241019;23;20004;-69
2023/10/16 11:56:38;;;;;;;9.27;5.05;;;;;;;;;;6241944;23;20016;-69
2023/10/16 11:59:09;;;;;;;12.02;8.52;;;;;;;;;;6214590;23;20103;-69
2023/10/16 12:01:35;;;;;;;4.30;3.90;;;;;;;;;;6241989;23;20021;-69
2023/10/16 12:04:01;;;;;;;3.72;3.00;;;;;;;;;;6242034;23;20364;-68
2023/10/16 12:06:27;;;;;;;4.78;3.67;;;;;;;;;;6241847;23;20012;-67
2023/10/16 12:08:54;;;;;;;3.90;3.60;;;;;;;;;;6241988;23;20110;-68
2023/10/16 12:11:20;;;;;;;4.00;3.60;;;;;;;;;;6242084;23;20016;-70
2023/10/16 12:13:47;;;;;;;6.05;4.07;;;;;;;;;;6241940;23;20447;-68
2023/10/16 12:16:13;;;;;;;4.90;4.15;;;;;;;;;;6242105;23;20043;-69
2023/10/16 12:18:38;;;;;;;4.82;4.38;;;;;;;;;;6242163;23;20012;-71
2023/10/16 12:21:04;;;;;;;4.90;4.25;;;;;;;;;;6242242;23;20109;-71
2023/10/16 12:23:32;;;;;;;5.35;4.85;;;;;;;;;;6242635;23;20016;-71
2023/10/16 12:26:00;;;;;;;6.53;4.55;;;;;;;;;;6242373;23;20098;-71
2023/10/16 12:28:26;;;;;;;4.88;4.35;;;;;;;;;;6214973;23;20334;-73
2023/10/16 12:30:56;;;;;;;4.85;4.45;;;;;;;;;;6241629;23;20023;-71
2023/10/16 12:33:25;;;;;;;4.93;4.57;;;;;;;;;;6241512;23;20063;-69
2023/10/16 12:35:54;;;;;;;4.72;4.30;;;;;;;;;;6242270;23;20012;-70
2023/10/16 12:38:23;;;;;;;5.85;4.88;;;;;;;;;;6241867;23;20087;-70
2023/10/16 12:40:53;;;;;;;5.78;4.97;;;;;;;;;;6215311;23;20044;-70
2023/10/16 12:43:20;;;;;;;5.70;5.20;;;;;;;;;;6241435;23;20036;-70
2023/10/16 12:45:49;;;;;;;6.35;5.10;;;;;;;;;;6241388;23;20460;-69
2023/10/16 12:48:15;;;;;;;6.55;5.82;;;;;;;;;;6241653;23;20044;-70
2023/10/16 12:50:41;;;;;;;6.25;5.30;;;;;;;;;;6241597;23;20071;-70
2023/10/16 12:53:08;;;;;;;5.25;4.85;;;;;;;;;;6241308;23;20452;-70
2023/10/16 12:55:34;;;;;;;9.52;5.65;;;;;;;;;;6215308;23;20057;-70
2023/10/16 12:58:03;;;;;;;6.47;5.88;;;;;;;;;;6243338;23;20008;-69
2023/10/16 13:00:30;;;;;;;6.93;5.35;;;;;;;;;;6242571;23;20361;-70
2023/10/16 13:02:58;;;;;;;10.05;5.35;;;;;;;;;;6243362;23;20008;-69
2023/10/16 13:05:25;;;;;;;6.85;6.15;;;;;;;;;;6241003;23;20472;-70
2023/10/16 13:07:51;;;;;;;6.22;5.40;;;;;;;;;;6241724;23;20007;-68
2023/10/16 13:10:25;;;;;;;4.88;4.40;;;;;;;;;;6214380;23;20028;-70
2023/10/16 13:12:51;;;;;;;8.32;5.03;;;;;;;;;;6241912;23;20046;-71
2023/10/16 13:15:24;;;;;;;6.13;5.18;;;;;;;;;;6241337;23;20008;-69
2023/10/16 13:17:50;;;;;;;8.57;5.43;;;;;;;;;;6215513;23;20012;-68
2023/10/16 13:20:19;;;;;;;5.65;4.95;;;;;;;;;;6190077;23;20012;-68
2023/10/16 13:22:49;;;;;;;7.10;5.50;;;;;;;;;;6215943;23;20044;-67
2023/10/16 13:25:16;;;;;;;5.45;4.95;;;;;;;;;;6241692;23;20095;-67
2023/10/16 13:27:46;;;;;;;6.35;5.75;;;;;;;;;;6242108;23;20066;-68
2023/10/16 13:30:16;;;;;;;10.93;6.25;;;;;;;;;;6241252;23;20063;-67
2023/10/16 13:32:46;;;;;;;5.60;5.10;;;;;;;;;;6191974;23;20449;-67
2023/10/16 13:35:13;;;;;;;5.60;5.10;;;;;;;;;;6243352;23;20008;-68
2023/10/16 13:37:42;;;;;;;6.72;5.43;;;;;;;;;;6216359;23;20570;-67
2023/10/16 13:40:20;;;;;;;5.95;5.45;;;;;;;;;;6241603;23;20012;-68
2023/10/16 13:42:55;;;;;;;7.50;5.20;;;;;;;;;;6242357;23;20016;-68
2023/10/16 13:45:22;;;;;;;8.15;5.82;;;;;;;;;;6240055;23;20161;-66
2023/10/16 13:47:51;;;;;;;7.15;5.30;;;;;;;;;;6241948;23;20073;-69
2023/10/16 13:50:30;;;;;;;8.20;5.75;;;;;;;;;;6241274;23;20008;-69
2023/10/16 13:52:56;;;;;;;6.90;5.78;;;;;;;;;;6241919;23;20451;-69
2023/10/16 13:55:23;;;;;;;7.45;5.30;;;;;;;;;;6241038;23;20008;-68
2023/10/16 13:57:54;;;;;;;6.53;5.72;;;;;;;;;;6189854;23;20047;-67
2023/10/16 14:00:29;;;;;;;7.97;5.45;;;;;;;;;;6190088;23;20019;-67
2023/10/16 14:03:04;;;;;;;6.35;5.40;;;;;;;;;;6241532;23;20086;-68
2023/10/16 14:05:35;;;;;;;7.00;5.15;;;;;;;;;;6214216;23;20453;-69
2023/10/16 14:08:03;;;;;;;8.32;6.07;;;;;;;;;;6241238;23;20023;-67
2023/10/16 14:10:29;;;;;;;10.85;6.78;;;;;;;;;;6240361;23;20610;-68
2023/10/16 14:13:10;;;;;;;10.98;6.68;;;;;;;;;;6241398;23;20058;-68
2023/10/16 14:15:41;;;;;;;8.88;6.30;;;;;;;;;;6189395;23;20111;-72
2023/10/16 14:18:14;;;;;;;5.82;5.30;;;;;;;;;;6241313;23;20345;-68
2023/10/16 14:20:45;;;;;;;6.38;5.82;;;;;;;;;;6191229;23;20012;-69
2023/10/16 14:23:12;;;;;;;6.15;5.63;;;;;;;;;;6240811;23;20012;-69
2023/10/16 14:25:45;;;;;;;9.23;7.22;;;;;;;;;;6214311;23;20380;-68
2023/10/16 14:30:58;;;;;;;6.25;5.65;;;;;;;;;;6241528;23;20016;-68
2023/10/16 14:33:28;;;;;;;8.20;7.43;;;;;;;;;;6215087;23;20474;-69
2023/10/16 14:35:54;;;;;;;13.68;9.60;;;;;;;;;;6214782;23;20016;-70
2023/10/16 14:38:20;;;;;;;14.52;12.05;;;;;;;;;;6188494;23;20040;-70
2023/10/16 14:40:46;;;;;;;12.90;11.50;;;;;;;;;;6214496;23;20038;-71
2023/10/16 14:43:15;;;;;;;12.98;11.20;;;;;;;;;;6240858;23;20008;-71
2023/10/16 14:45:48;;;;;;;15.73;9.68;;;;;;;;;;6241559;23;20016;-68
2023/10/16 14:48:28;;;;;;;10.85;7.93;;;;;;;;;;6217715;23;20035;-69
2023/10/16 14:50:59;;;;;;;10.80;7.82;;;;;;;;;;6243798;23;20070;-70
2023/10/16 14:53:25;;;;;;;9.55;8.23;;;;;;;;;;6241753;23;20496;-70
2023/10/16 14:55:51;;;;;;;7.68;6.85;;;;;;;;;;6216938;23;20019;-69
2023/10/16 14:58:21;;;;;;;6.50;5.90;;;;;;;;;;6244614;23;20015;-70
2023/10/16 15:00:50;;;;;;;9.55;6.90;;;;;;;;;;6218238;23;20015;-72
2023/10/16 15:03:20;;;;;;;8.73;7.10;;;;;;;;;;6243837;23;20012;-70
2023/10/16 15:05:46;;;;;;;6.68;6.00;;;;;;;;;;6243946;23;20012;-70
2023/10/16 15:08:13;;;;;;;9.00;7.93;;;;;;;;;;6243635;23;20008;-70
2023/10/16 15:10:42;;;;;;;10.98;7.40;;;;;;;;;;6216581;23;20024;-71
2023/10/16 15:13:12;;;;;;;8.88;8.07;;;;;;;;;;6217131;23;20016;-71
2023/10/16 15:15:39;;;;;;;7.18;6.57;;;;;;;;;;6217147;23;20012;-70
2023/10/16 15:18:06;;;;;;;9.52;8.63;;;;;;;;;;6243886;23;20023;-70
2023/10/16 15:20:32;;;;;;;11.20;10.05;;;;;;;;;;6217000;23;20023;-71
2023/10/16 15:23:00;;;;;;;10.32;9.15;;;;;;;;;;6243890;23;20012;-71
2023/10/16 15:25:26;;;;;;;10.40;8.30;;;;;;;;;;6243260;23;20042;-71
2023/10/16 15:27:52;;;;;;;12.82;8.52;;;;;;;;;;6243997;23;20012;-71
2023/10/16 15:30:18;;;;;;;9.40;7.38;;;;;;;;;;6191567;23;20036;-71
2023/10/16 15:32:44;;;;;;;9.68;8.68;;;;;;;;;;6216476;23;20016;-71
2023/10/16 15:35:10;;;;;;;7.88;7.20;;;;;;;;;;6243577;23;20035;-71
2023/10/16 15:37:40;;;;;;;14.40;7.65;;;;;;;;;;6243513;23;20016;-71
2023/10/16 15:40:16;;;;;;;10.90;7.47;;;;;;;;;;6243558;23;20012;-70
2023/10/16 15:42:43;;;;;;;6.38;5.78;;;;;;;;;;6216953;23;20289;-70
2023/10/16 15:45:09;;;;;;;7.05;6.35;;;;;;;;;;6243418;23;20073;-71
2023/10/16 15:47:35;;;;;;;7.55;5.68;;;;;;;;;;6243351;23;20027;-71
2023/10/16 15:50:01;;;;;;;7.30;6.07;;;;;;;;;;6243468;23;20008;-71
2023/10/16 15:52:27;;;;;;;6.28;5.75;;;;;;;;;;6242818;23;20056;-71
2023/10/16 15:54:53;;;;;;;6.43;5.22;;;;;;;;;;6191836;23;20385;-72
2023/10/16 15:57:22;;;;;;;7.82;5.50;;;;;;;;;;6242998;23;20086;-72
2023/10/16 15:59:49;;;;;;;4.95;4.50;;;;;;;;;;6243361;23;20058;-72
2023/10/16 16:02:16;;;;;;;7.13;5.15;;;;;;;;;;6243099;23;20101;-70
2023/10/16 16:04:47;;;;;;;8.18;5.82;;;;;;;;;;6243346;23;20065;-70
2023/10/16 16:07:13;;;;;;;6.13;5.22;;;;;;;;;;6217658;23;20012;-71
2023/10/16 16:09:41;;;;;;;8.73;5.63;;;;;;;;;;6242363;23;20373;-71
2023/10/16 16:12:14;;;;;;;3.72;3.38;;;;;;;;;;6216628;23;20338;-70
2023/10/16 16:14:42;;;;;;;4.53;2.15;;;;;;;;;;6242847;23;20012;-72
2023/10/16 16:17:11;;;;;;;6.07;2.30;;;;;;;;;;6242942;23;20012;-73
2023/10/16 16:19:39;;;;;;;2.53;2.33;;;;;;;;;;6242870;23;20012;-71
2023/10/16 16:22:10;;;;;;;2.65;1.52;;;;;;;;;;6243291;23;20019;-71
2023/10/16 16:24:39;;;;;;;2.22;2.03;;;;;;;;;;6242972;23;20016;-71
2023/10/16 16:27:07;;;;;;;1.90;1.80;;;;;;;;;;6216249;23;20369;-70
2023/10/16 16:29:40;;;;;;;2.25;1.90;;;;;;;;;;6242717;23;20453;-71
2023/10/16 16:32:06;;;;;;;2.20;2.10;;;;;;;;;;6242653;23;20480;-71
2023/10/16 16:34:33;;;;;;;2.08;1.98;;;;;;;;;;6215939;23;20012;-71
2023/10/16 16:36:59;;;;;;;2.38;2.17;;;;;;;;;;6243006;23;20092;-71